Time;durP1;ratioP1;P1;durP2;ratioP2;P2;SDS_P1;SDS_P2;PMS_P1;PMS_P2;Temp;Humidity;BMP_temperature;BMP_pressure;BME280_temperature;BME280_humidity;BME280_pressure;Samples;Min_cycle;Max_cycle;Signal;HPM_P1;HPM_P2
2022/11/02 00:00:49;;;;;;;;;;;;;;;9.29;82.21;99760.75;5016552;28;1792;-77
2022/11/02 00:03:16;;;;;;;;;;;;;;;9.30;82.28;99767.75;5006285;28;1540;-77
2022/11/02 00:05:42;;;;;;;;;;;;;;;9.29;82.29;99771.50;5005798;28;1781;-77
2022/11/02 00:08:08;;;;;;;;;;;;;;;9.30;82.32;99770.44;5001261;28;1788;-77
2022/11/02 00:10:35;;;;;;;;;;;;;;;9.30;81.98;99758.88;5007866;28;1746;-77
2022/11/02 00:13:01;;;;;;;;;;;;;;;9.29;82.43;99758.06;5007416;28;1975;-77
2022/11/02 00:15:27;;;;;;;;;;;;;;;9.30;82.13;99748.13;5005176;28;1962;-77
2022/11/02 00:17:54;;;;;;;;;;;;;;;9.30;82.36;99751.63;5014275;28;1654;-77
2022/11/02 00:20:20;;;;;;;;;;;;;;;9.31;82.12;99736.31;5022630;28;1747;-77
2022/11/02 00:22:46;;;;;;;;;;;;;;;9.31;82.21;99730.94;5006956;28;1920;-77
2022/11/02 00:25:13;;;;;;;;;;;;;;;9.31;82.23;99739.81;5011482;28;2038;-77
2022/11/02 00:27:39;;;;;;;;;;;;;;;9.31;82.34;99747.06;5018759;28;1771;-77
2022/11/02 00:30:05;;;;;;;;;;;;;;;9.32;82.22;99735.25;5014324;28;1856;-77
2022/11/02 00:32:31;;;;;;;;;;;;;;;9.33;82.34;99723.47;5003449;28;2100;-77
2022/11/02 00:34:58;;;;;;;;;;;;;;;9.31;82.37;99721.00;5004600;28;1791;-77
2022/11/02 00:37:24;;;;;;;;;;;;;;;9.32;82.37;99719.97;5008692;28;1456;-77
2022/11/02 00:39:50;;;;;;;;;;;;;;;9.32;82.16;99728.03;5004114;28;1635;-77
2022/11/02 00:42:17;;;;;;;;;;;;;;;9.32;82.29;99729.88;5004801;28;1507;-77
2022/11/02 00:44:43;;;;;;;;;;;;;;;9.33;82.07;99726.97;5003531;28;1919;-77
2022/11/02 00:47:10;;;;;;;;;;;;;;;9.34;82.28;99725.09;5007863;28;1540;-77
2022/11/02 00:49:36;;;;;;;;;;;;;;;9.34;82.03;99719.72;5018173;28;2021;-77
2022/11/02 00:52:03;;;;;;;;;;;;;;;9.33;82.39;99720.78;5020930;28;1967;-77
2022/11/02 00:54:29;;;;;;;;;;;;;;;9.35;82.42;99715.16;5006584;28;1726;-77
2022/11/02 00:56:56;;;;;;;;;;;;;;;9.35;82.14;99715.16;5003485;28;1629;-77
2022/11/02 00:59:22;;;;;;;;;;;;;;;9.35;82.37;99713.28;5018983;28;1569;-77
2022/11/02 01:01:48;;;;;;;;;;;;;;;9.35;82.42;99713.28;5023903;28;1813;-77
2022/11/02 01:04:14;;;;;;;;;;;;;;;9.35;82.13;99707.09;5023059;28;2030;-77
2022/11/02 01:06:41;;;;;;;;;;;;;;;9.36;82.27;99698.00;5025469;28;1797;-77
2022/11/02 01:09:07;;;;;;;;;;;;;;;9.36;82.40;99703.38;5023894;28;2014;-77
2022/11/02 01:11:34;;;;;;;;;;;;;;;9.35;82.28;99699.84;5013892;28;5493;-78
2022/11/02 01:14:00;;;;;;;;;;;;;;;9.36;82.43;99706.06;5021435;28;5905;-78
2022/11/02 01:16:26;;;;;;;;;;;;;;;9.29;82.40;99695.41;5020798;28;3648;-77
2022/11/02 01:18:53;;;;;;;;;;;;;;;9.36;82.39;99708.75;5022261;28;3746;-77
2022/11/02 01:21:19;;;;;;;;;;;;;;;9.37;82.53;99699.63;5023425;28;3680;-77
2022/11/02 01:23:45;;;;;;;;;;;;;;;9.37;82.28;99702.31;5003731;28;1663;-77
2022/11/02 01:26:12;;;;;;;;;;;;;;;9.37;82.45;99703.13;4999747;28;1718;-77
2022/11/02 01:28:38;;;;;;;;;;;;;;;9.38;82.13;99693.19;5003930;28;1780;-77
2022/11/02 01:31:04;;;;;;;;;;;;;;;9.38;82.25;99709.31;5003228;28;3656;-77
2022/11/02 01:33:30;;;;;;;;;;;;;;;9.37;82.53;99697.75;5009739;28;2533;-77
2022/11/02 01:35:57;;;;;;;;;;;;;;;9.39;82.40;99697.53;5008423;28;1652;-77
2022/11/02 01:38:23;;;;;;;;;;;;;;;9.39;82.36;99701.03;5004423;28;1818;-77
2022/11/02 01:40:49;;;;;;;;;;;;;;;9.39;82.46;99708.28;5003213;28;2942;-77
2022/11/02 01:43:15;;;;;;;;;;;;;;;9.39;82.49;99695.66;5003999;28;1869;-77
2022/11/02 01:45:42;;;;;;;;;;;;;;;9.40;82.37;99708.03;5003619;28;1833;-77
2022/11/02 01:48:08;;;;;;;;;;;;;;;9.39;82.37;99692.97;5010279;28;1865;-77
2022/11/02 01:50:34;;;;;;;;;;;;;;;9.40;82.31;99689.22;5010476;28;1916;-77
2022/11/02 01:53:01;;;;;;;;;;;;;;;9.39;82.31;99689.47;5007235;28;1988;-77
2022/11/02 01:55:28;;;;;;;;;;;;;;;9.41;82.27;99695.41;5009170;28;1666;-77
2022/11/02 01:57:54;;;;;;;;;;;;;;;9.41;82.42;99693.56;5003760;28;1970;-77
2022/11/02 02:00:20;;;;;;;;;;;;;;;9.40;82.40;99691.09;5011235;28;2157;-77
2022/11/02 02:02:47;;;;;;;;;;;;;;;9.40;82.17;99686.53;5004771;28;2092;-77
2022/11/02 02:05:13;;;;;;;;;;;;;;;9.41;82.48;99688.19;5004105;28;1671;-77
2022/11/02 02:07:39;;;;;;;;;;;;;;;9.42;82.61;99678.25;5010672;28;1690;-77
2022/11/02 02:10:05;;;;;;;;;;;;;;;9.42;82.58;99673.69;5003486;28;1780;-77
2022/11/02 02:12:32;;;;;;;;;;;;;;;9.43;82.68;99685.25;5005619;28;1922;-77
2022/11/02 02:14:58;;;;;;;;;;;;;;;9.42;82.41;99683.63;5003040;28;1533;-77
2022/11/02 02:17:25;;;;;;;;;;;;;;;9.42;82.49;99683.63;5004889;28;1585;-77
2022/11/02 02:19:51;;;;;;;;;;;;;;;9.43;82.33;99682.56;5016267;28;1908;-77
2022/11/02 02:22:17;;;;;;;;;;;;;;;9.42;82.37;99671.00;5007403;28;2324;-77
2022/11/02 02:24:43;;;;;;;;;;;;;;;9.43;82.27;99663.75;5003691;28;1824;-77
2022/11/02 02:27:10;;;;;;;;;;;;;;;9.44;82.59;99665.38;5006107;28;1555;-77
2022/11/02 02:29:36;;;;;;;;;;;;;;;9.43;82.32;99664.56;5003558;28;1841;-77
2022/11/02 02:32:03;;;;;;;;;;;;;;;9.43;82.31;99656.50;5003861;28;1973;-77
2022/11/02 02:34:29;;;;;;;;;;;;;;;9.44;82.46;99657.31;5002316;28;1831;-77
2022/11/02 02:36:55;;;;;;;;;;;;;;;9.44;82.56;99665.38;5003752;28;1581;-77
2022/11/02 02:39:21;;;;;;;;;;;;;;;9.43;82.52;99667.25;5006698;28;1562;-77
2022/11/02 02:41:48;;;;;;;;;;;;;;;9.45;82.55;99680.47;5002565;28;1797;-77
2022/11/02 02:44:14;;;;;;;;;;;;;;;9.45;82.65;99691.22;5016694;28;1659;-77
2022/11/02 02:46:40;;;;;;;;;;;;;;;9.45;82.40;99692.03;5019442;28;1913;-77
2022/11/02 02:49:07;;;;;;;;;;;;;;;9.47;82.38;99699.84;5022585;28;1831;-77
2022/11/02 02:51:33;;;;;;;;;;;;;;;9.45;82.34;99694.72;5021681;28;1897;-77
2022/11/02 02:53:59;;;;;;;;;;;;;;;9.46;82.55;99695.53;5025472;28;1975;-77
2022/11/02 02:56:25;;;;;;;;;;;;;;;9.46;82.43;99699.03;5024125;28;1680;-77
2022/11/02 02:58:52;;;;;;;;;;;;;;;9.45;82.41;99689.34;5018180;28;1917;-77
2022/11/02 03:01:18;;;;;;;;;;;;;;;9.46;82.50;99688.28;5023876;28;2070;-79
2022/11/02 03:03:44;;;;;;;;;;;;;;;9.46;82.52;99685.59;5025524;28;1995;-78
2022/11/02 03:06:11;;;;;;;;;;;;;;;9.47;82.44;99681.88;5025182;28;1872;-77
2022/11/02 03:08:37;;;;;;;;;;;;;;;9.47;82.36;99675.66;5026884;28;1961;-77
2022/11/02 03:11:03;;;;;;;;;;;;;;;9.47;82.58;99681.03;5017781;28;2490;-77
2022/11/02 03:13:29;;;;;;;;;;;;;;;9.47;82.46;99678.34;5005814;28;1918;-77
2022/11/02 03:15:58;;;;;;;;;;;;;;;9.48;82.32;99672.75;5006586;28;1806;-77
2022/11/02 03:18:24;;;;;;;;;;;;;;;9.48;82.41;99672.75;5006311;28;1998;-77
2022/11/02 03:20:50;;;;;;;;;;;;;;;9.48;82.59;99667.38;5007034;28;1550;-77
2022/11/02 03:23:17;;;;;;;;;;;;;;;9.49;82.52;99676.25;5011216;28;1650;-77
2022/11/02 03:25:44;;;;;;;;;;;;;;;9.49;82.57;99670.88;5008843;28;1878;-77
2022/11/02 03:28:10;;;;;;;;;;;;;;;9.48;82.51;99670.06;5007347;28;1945;-77
2022/11/02 03:30:36;;;;;;;;;;;;;;;9.48;82.45;99670.06;5009026;28;1530;-77
2022/11/02 03:33:03;;;;;;;;;;;;;;;9.49;82.34;99677.06;5008986;28;1946;-77
2022/11/02 03:35:29;;;;;;;;;;;;;;;9.49;82.57;99669.00;5006307;28;1680;-76
2022/11/02 03:37:55;;;;;;;;;;;;;;;9.50;82.55;99681.41;5001201;28;1891;-76
2022/11/02 03:40:22;;;;;;;;;;;;;;;9.50;82.77;99684.09;5002838;28;5464;-77
2022/11/02 03:42:48;;;;;;;;;;;;;;;9.49;82.36;99677.06;5010538;28;5362;-77
2022/11/02 03:45:14;;;;;;;;;;;;;;;9.50;82.45;99669.81;5004384;28;5880;-77
2022/11/02 03:47:40;;;;;;;;;;;;;;;9.50;82.59;99669.81;5008572;28;3434;-77
2022/11/02 03:50:07;;;;;;;;;;;;;;;9.51;82.62;99671.47;5005439;28;1562;-77
2022/11/02 03:52:33;;;;;;;;;;;;;;;9.50;82.55;99670.66;5008372;28;1906;-77
2022/11/02 03:54:59;;;;;;;;;;;;;;;9.50;82.38;99670.66;5007825;28;1671;-77
2022/11/02 03:57:26;;;;;;;;;;;;;;;9.51;82.57;99669.59;5009928;28;1782;-77
2022/11/02 03:59:52;;;;;;;;;;;;;;;9.51;82.52;99664.22;5005584;28;1530;-77
2022/11/02 04:02:18;;;;;;;;;;;;;;;9.50;82.45;99654.53;5021938;28;1569;-77
2022/11/02 04:04:45;;;;;;;;;;;;;;;9.52;82.57;99656.97;5007531;28;1766;-77
2022/11/02 04:07:11;;;;;;;;;;;;;;;9.51;82.73;99650.78;5003666;28;1746;-77
2022/11/02 04:09:37;;;;;;;;;;;;;;;9.51;82.76;99664.22;5007237;28;1683;-77
2022/11/02 04:14:47;;;;;;;;;;;;;;;9.53;82.49;99664.00;5005350;28;1568;-77
2022/11/02 04:19:58;;;;;;;;;;;;;;;9.53;82.62;99662.13;5006242;28;5630;-77
2022/11/02 04:25:18;;;;;;;;;;;;;;;9.53;82.59;99664.81;5010091;28;1630;-77
2022/11/02 04:27:44;;;;;;;;;;;;;;;9.54;82.81;99658.38;5021306;28;5321;-77
2022/11/02 04:30:10;;;;;;;;;;;;;;;9.54;82.59;99652.19;5009008;28;1630;-77
2022/11/02 04:35:21;;;;;;;;;;;;;;;9.53;82.96;99656.75;5005136;28;1690;-77
2022/11/02 04:40:31;;;;;;;;;;;;;;;9.53;82.62;99654.06;5001213;28;1520;-77
2022/11/02 04:42:58;;;;;;;;;;;;;;;9.55;82.53;99651.94;5006018;28;1648;-77
2022/11/02 04:45:24;;;;;;;;;;;;;;;9.55;82.58;99651.94;5007084;28;1536;-77
2022/11/02 04:47:50;;;;;;;;;;;;;;;9.55;82.62;99649.25;5002629;28;1829;-77
2022/11/02 04:50:16;;;;;;;;;;;;;;;9.53;82.62;99648.69;5003571;28;2859;-77
2022/11/02 04:52:43;;;;;;;;;;;;;;;9.54;82.54;99646.81;5006442;28;1981;-77
2022/11/02 04:55:09;;;;;;;;;;;;;;;9.55;82.73;99651.13;5004490;28;1556;-77
2022/11/02 04:57:35;;;;;;;;;;;;;;;9.55;82.39;99645.75;5006476;28;1935;-77
2022/11/02 05:00:06;;;;;;;;;;;;;;;9.56;82.47;99658.16;5006268;28;1646;-77
2022/11/02 05:02:32;;;;;;;;;;;;;;;9.57;82.54;99648.22;5004583;28;1968;-77
2022/11/02 05:04:58;;;;;;;;;;;;;;;9.57;82.49;99640.97;5004993;28;1762;-76
2022/11/02 05:07:24;;;;;;;;;;;;;;;9.57;82.64;99640.97;5003706;28;1769;-77
2022/11/02 05:09:51;;;;;;;;;;;;;;;9.57;82.67;99637.47;5004545;28;1876;-77
2022/11/02 05:12:17;;;;;;;;;;;;;;;9.57;82.76;99640.16;5008461;28;1690;-76
2022/11/02 05:14:43;;;;;;;;;;;;;;;9.57;82.53;99640.97;5006078;28;1910;-77
2022/11/02 05:17:12;;;;;;;;;;;;;;;9.58;82.85;99639.09;5003588;28;1805;-77
2022/11/02 05:19:38;;;;;;;;;;;;;;;9.58;82.75;99647.16;5008648;28;1670;-77
2022/11/02 05:22:04;;;;;;;;;;;;;;;9.58;82.79;99652.53;5008077;28;1682;-77
2022/11/02 05:24:31;;;;;;;;;;;;;;;9.58;82.77;99660.59;5008422;28;1697;-77
2022/11/02 05:26:59;;;;;;;;;;;;;;;9.58;82.68;99657.91;5003749;28;1766;-77
2022/11/02 05:29:25;;;;;;;;;;;;;;;9.57;82.66;99656.28;5005914;28;1529;-77
2022/11/02 05:31:52;;;;;;;;;;;;;;;9.57;82.59;99654.41;5003246;28;1648;-77
2022/11/02 05:34:18;;;;;;;;;;;;;;;9.57;82.70;99665.16;5006505;28;1918;-77
2022/11/02 05:36:46;;;;;;;;;;;;;;;9.58;82.66;99657.91;5003488;28;1694;-76
2022/11/02 05:39:12;;;;;;;;;;;;;;;9.58;82.85;99655.22;5006260;28;1619;-77
2022/11/02 05:41:39;;;;;;;;;;;;;;;9.59;82.83;99664.91;5007637;28;1809;-77
2022/11/02 05:44:05;;;;;;;;;;;;;;;9.58;82.79;99656.03;5005722;28;1698;-76
2022/11/02 05:46:32;;;;;;;;;;;;;;;9.58;82.72;99658.72;5007243;28;1575;-77
2022/11/02 05:48:58;;;;;;;;;;;;;;;9.25;82.72;99610.94;5001932;28;1992;-77
2022/11/02 05:51:24;;;;;;;;;;;;;;;9.58;82.69;99655.22;5003480;28;1874;-77
2022/11/02 05:53:51;;;;;;;;;;;;;;;9.59;82.82;99660.38;5002957;28;1946;-77
2022/11/02 05:56:17;;;;;;;;;;;;;;;9.58;82.62;99658.72;5010306;28;1687;-77
2022/11/02 05:58:43;;;;;;;;;;;;;;;9.59;82.73;99665.75;5020560;28;1729;-77
2022/11/02 06:01:10;;;;;;;;;;;;;;;9.59;82.50;99664.91;5025095;28;1875;-77
2022/11/02 06:03:36;;;;;;;;;;;;;;;9.59;82.64;99668.44;5023623;28;2030;-78
2022/11/02 06:06:02;;;;;;;;;;;;;;;9.59;82.77;99673.81;5022252;28;1977;-77
2022/11/02 06:08:28;;;;;;;;;;;;;;;9.59;82.81;99668.44;5020033;28;1959;-77
2022/11/02 06:10:55;;;;;;;;;;;;;;;9.60;82.65;99674.63;5020115;28;1837;-77
2022/11/02 06:13:21;;;;;;;;;;;;;;;9.59;82.74;99671.13;5021257;28;1985;-77
2022/11/02 06:15:47;;;;;;;;;;;;;;;9.60;82.85;99671.94;5021977;28;3759;-77
2022/11/02 06:18:13;;;;;;;;;;;;;;;9.60;82.63;99674.63;5021070;28;3498;-77
2022/11/02 06:20:40;;;;;;;;;;;;;;;9.59;82.87;99671.13;5018865;28;2658;-77
2022/11/02 06:23:06;;;;;;;;;;;;;;;9.59;82.69;99662.22;5021330;28;1955;-77
2022/11/02 06:25:32;;;;;;;;;;;;;;;9.60;82.82;99663.88;5018231;28;1849;-77
2022/11/02 06:27:59;;;;;;;;;;;;;;;9.60;82.81;99669.25;5019144;28;1903;-77
2022/11/02 06:30:25;;;;;;;;;;;;;;;9.59;82.83;99668.44;5022892;28;1847;-77
2022/11/02 06:32:51;;;;;;;;;;;;;;;9.60;82.60;99670.06;5013264;28;5750;-77
2022/11/02 06:35:17;;;;;;;;;;;;;;;9.60;82.70;99672.75;5019085;28;1932;-77
2022/11/02 06:37:44;;;;;;;;;;;;;;;9.60;82.72;99674.63;5033559;28;1852;-77
2022/11/02 06:40:10;;;;;;;;;;;;;;;9.60;82.76;99674.63;5033749;28;1872;-77
2022/11/02 06:42:36;;;;;;;;;;;;;;;9.60;82.55;99678.13;5032604;28;1740;-77
2022/11/02 06:45:03;;;;;;;;;;;;;;;9.60;82.74;99674.63;5030896;28;2082;-77
2022/11/02 06:47:29;;;;;;;;;;;;;;;9.60;82.72;99671.94;5033787;28;1717;-77
2022/11/02 06:49:55;;;;;;;;;;;;;;;9.59;82.69;99673.81;5031575;28;1857;-77
2022/11/02 06:52:21;;;;;;;;;;;;;;;9.59;82.82;99679.19;5041818;28;2322;-77
2022/11/02 06:54:48;;;;;;;;;;;;;;;9.60;82.92;99671.94;5030672;28;1985;-77
2022/11/02 06:57:14;;;;;;;;;;;;;;;9.60;82.81;99674.63;5032424;28;1880;-77
2022/11/02 06:59:40;;;;;;;;;;;;;;;9.60;82.82;99674.63;5030440;28;1769;-77
2022/11/02 07:02:07;;;;;;;;;;;;;;;9.60;82.71;99669.25;5029841;28;1710;-77
2022/11/02 07:04:33;;;;;;;;;;;;;;;9.60;82.69;99669.25;5027736;28;2679;-77
2022/11/02 07:06:59;;;;;;;;;;;;;;;9.59;82.72;99668.44;5033057;28;2028;-77
2022/11/02 07:09:25;;;;;;;;;;;;;;;9.58;82.66;99665.97;5028216;28;1556;-77
2022/11/02 07:11:52;;;;;;;;;;;;;;;9.59;82.58;99664.91;5035989;28;2363;-77
2022/11/02 07:14:18;;;;;;;;;;;;;;;9.61;82.65;99662.81;5035250;28;1950;-77
2022/11/02 07:16:44;;;;;;;;;;;;;;;9.61;82.83;99665.50;5026583;28;1738;-77
2022/11/02 07:19:10;;;;;;;;;;;;;;;9.60;82.44;99666.56;5033845;28;1666;-77
2022/11/02 07:21:37;;;;;;;;;;;;;;;9.60;82.63;99670.06;5036295;28;1911;-77
2022/11/02 07:24:03;;;;;;;;;;;;;;;9.61;82.79;99663.63;5031417;28;1879;-77
2022/11/02 07:26:29;;;;;;;;;;;;;;;9.59;82.62;99655.00;5035214;28;1864;-77
2022/11/02 07:28:56;;;;;;;;;;;;;;;9.60;82.82;99663.88;5033961;28;1588;-77
2022/11/02 07:31:25;;;;;;;;;;;;;;;9.60;82.88;99653.94;5029113;28;1865;-77
2022/11/02 07:33:51;;;;;;;;;;;;;;;9.60;82.90;99651.25;5032131;28;1997;-77
2022/11/02 07:36:17;;;;;;;;;;;;;;;9.60;82.68;99647.75;5032606;28;1686;-77
2022/11/02 07:38:44;;;;;;;;;;;;;;;9.59;82.71;99644.25;5027092;28;1861;-77
2022/11/02 07:41:10;;;;;;;;;;;;;;;9.60;82.61;99645.88;5030761;28;1978;-77
2022/11/02 07:43:36;;;;;;;;;;;;;;;9.60;82.76;99647.75;5026112;28;1715;-77
2022/11/02 07:46:03;;;;;;;;;;;;;;;9.60;82.70;99639.69;5029395;28;1869;-77
2022/11/02 07:48:29;;;;;;;;;;;;;;;9.60;82.86;99645.88;5030220;28;2010;-77
2022/11/02 07:50:55;;;;;;;;;;;;;;;9.60;82.67;99645.06;5030859;28;1966;-78
2022/11/02 07:53:22;;;;;;;;;;;;;;;9.60;82.73;99640.50;5034594;28;1977;-78
2022/11/02 07:55:48;;;;;;;;;;;;;;;9.59;82.69;99625.44;5043759;28;1861;-78
2022/11/02 07:58:14;;;;;;;;;;;;;;;9.60;82.71;99631.63;5027156;28;2109;-78
2022/11/02 08:00:41;;;;;;;;;;;;;;;9.61;82.67;99630.56;5033913;28;1922;-78
2022/11/02 08:03:07;;;;;;;;;;;;;;;9.60;82.51;99632.44;5037850;28;1187;-77
2022/11/02 08:05:33;;;;;;;;;;;;;;;9.61;82.52;99641.31;5041746;28;937;-78
2022/11/02 08:07:59;;;;;;;;;;;;;;;9.61;82.57;99638.63;5025103;28;2289;-79
2022/11/02 08:10:26;;;;;;;;;;;;;;;9.61;82.78;99627.88;5035460;28;1957;-78
2022/11/02 08:12:52;;;;;;;;;;;;;;;9.60;82.71;99627.06;5031282;28;1027;-78
2022/11/02 08:15:18;;;;;;;;;;;;;;;9.61;82.70;99625.19;5023317;28;2001;-77
2022/11/02 08:17:45;;;;;;;;;;;;;;;9.62;82.84;99624.13;5030747;28;1547;-77
2022/11/02 08:20:11;;;;;;;;;;;;;;;9.61;82.79;99626.00;5031948;28;1981;-77
2022/11/02 08:22:37;;;;;;;;;;;;;;;9.61;82.76;99631.38;5030394;28;2642;-77
2022/11/02 08:25:04;;;;;;;;;;;;;;;9.61;82.45;99623.31;5035970;28;1653;-77
2022/11/02 08:27:30;;;;;;;;;;;;;;;9.61;82.58;99622.50;5021926;28;5552;-77
2022/11/02 08:29:56;;;;;;;;;;;;;;;9.61;82.51;99622.50;5032541;28;4597;-77
2022/11/02 08:32:23;;;;;;;;;;;;;;;9.62;82.83;99618.75;5030929;28;4540;-78
2022/11/02 08:34:49;;;;;;;;;;;;;;;9.60;82.87;99619.00;5035125;28;2013;-77
2022/11/02 08:37:15;;;;;;;;;;;;;;;9.63;82.88;99615.03;5035425;28;1827;-77
2022/11/02 08:39:41;;;;;;;;;;;;;;;9.61;82.71;99617.13;5024482;28;5231;-77
2022/11/02 08:42:08;;;;;;;;;;;;;;;9.62;82.83;99605.28;5025876;28;6100;-77
2022/11/02 08:44:34;;;;;;;;;;;;;;;9.61;82.56;99612.56;5029817;28;3307;-77
2022/11/02 08:47:00;;;;;;;;;;;;;;;9.91;88.54;99604.31;5027180;28;2491;-77
2022/11/02 08:49:27;;;;;;;;;;;;;;;9.73;84.65;99607.16;5028733;28;1802;-77
2022/11/02 08:51:53;;;;;;;;;;;;;;;9.68;84.10;99609.75;5024796;28;2383;-77
2022/11/02 08:54:19;;;;;;;;;;;;;;;9.67;84.17;99605.41;5029316;28;1983;-77
2022/11/02 08:56:45;;;;;;;;;;;;;;;9.65;83.79;99596.78;5032106;28;1308;-77
2022/11/02 08:59:12;;;;;;;;;;;;;;;9.65;83.77;99600.28;5024584;28;1886;-77
2022/11/02 09:01:38;;;;;;;;;;;;;;;9.65;83.51;99594.09;5025695;28;1830;-77
2022/11/02 09:04:05;;;;;;;;;;;;;;;9.65;83.50;99596.78;5024731;28;2751;-77
2022/11/02 09:06:36;;;;;;;;;;;;;;;9.64;83.47;99598.63;5032551;28;1711;-77
2022/11/02 09:09:02;;;;;;;;;;;;;;;9.66;83.23;99601.91;5026585;28;1863;-78
2022/11/02 09:11:29;;;;;;;;;;;;;;;9.65;83.29;99605.66;5026520;28;1635;-77
2022/11/02 09:13:55;;;;;;;;;;;;;;;9.66;83.40;99611.84;5027590;28;2042;-77
2022/11/02 09:16:21;;;;;;;;;;;;;;;9.65;83.30;99608.34;5025376;28;1581;-77
2022/11/02 09:18:48;;;;;;;;;;;;;;;9.65;83.18;99611.03;5028652;28;1614;-77
2022/11/02 09:21:14;;;;;;;;;;;;;;;9.65;83.43;99604.84;5013476;28;5521;-77
2022/11/02 09:23:40;;;;;;;;;;;;;;;9.65;83.16;99605.66;5027632;28;4098;-77
2022/11/02 09:26:07;;;;;;;;;;;;;;;9.64;83.04;99603.19;5033247;28;4150;-78
2022/11/02 09:28:33;;;;;;;;;;;;;;;9.65;83.27;99612.91;5022373;28;1275;-78
2022/11/02 09:30:59;;;;;;;;;;;;;;;9.66;83.17;99617.22;5031498;28;1348;-78
2022/11/02 09:33:25;;;;;;;;;;;;;;;9.65;83.05;99624.50;5031683;28;1055;-77
2022/11/02 09:35:52;;;;;;;;;;;;;;;9.66;83.14;99619.91;5016649;28;1987;-77
2022/11/02 09:38:18;;;;;;;;;;;;;;;9.65;83.30;99627.16;5028259;28;5057;-77
2022/11/02 09:40:44;;;;;;;;;;;;;;;9.65;83.38;99626.38;5016664;28;1170;-77
2022/11/02 09:43:11;;;;;;;;;;;;;;;9.64;83.24;99620.13;5033388;28;1461;-77
2022/11/02 09:45:37;;;;;;;;;;;;;;;9.65;83.50;99623.66;5032048;28;1154;-77
2022/11/02 09:48:03;;;;;;;;;;;;;;;9.65;83.20;99629.06;5028772;28;1719;-77
2022/11/02 09:50:29;;;;;;;;;;;;;;;9.66;83.36;99625.28;5018916;28;3199;-77
2022/11/02 09:52:56;;;;;;;;;;;;;;;9.65;83.35;99629.88;5034381;28;2158;-77
2022/11/02 09:55:23;;;;;;;;;;;;;;;9.65;83.28;99629.06;5030560;28;1910;-77
2022/11/02 09:57:49;;;;;;;;;;;;;;;9.65;83.28;99626.38;5047894;28;2210;-78
2022/11/02 10:00:17;;;;;;;;;;;;;;;9.65;83.28;99632.56;5030569;28;1909;-77
2022/11/02 10:02:43;;;;;;;;;;;;;;;9.65;83.17;99631.75;5015243;28;1522;-77
2022/11/02 10:05:09;;;;;;;;;;;;;;;9.64;83.20;99638.97;5023000;28;1631;-77
2022/11/02 10:07:36;;;;;;;;;;;;;;;9.65;83.23;99651.38;5015934;28;1942;-77
2022/11/02 10:10:02;;;;;;;;;;;;;;;9.65;83.33;99634.44;5036773;28;1092;-77
2022/11/02 10:12:28;;;;;;;;;;;;;;;9.65;83.11;99640.63;5032585;28;1955;-77
2022/11/02 10:14:55;;;;;;;;;;;;;;;9.65;83.19;99635.25;5048132;28;1902;-77
2022/11/02 10:17:21;;;;;;;;;;;;;;;9.65;83.29;99627.16;5046226;28;1415;-77
2022/11/02 10:19:47;;;;;;;;;;;;;;;9.65;83.25;99637.13;5031194;28;1613;-77
2022/11/02 10:22:14;;;;;;;;;;;;;;;9.65;83.24;99632.56;5030763;28;1366;-77
2022/11/02 10:24:41;;;;;;;;;;;;;;;9.65;83.29;99620.97;5017805;28;1226;-77
2022/11/02 10:27:07;;;;;;;;;;;;;;;9.65;83.21;99631.75;5030921;28;1103;-77
2022/11/02 10:29:34;;;;;;;;;;;;;;;9.64;83.18;99630.91;5017826;28;1099;-78
2022/11/02 10:32:01;;;;;;;;;;;;;;;9.65;83.29;99624.50;5023650;28;1681;-77
2022/11/02 10:34:27;;;;;;;;;;;;;;;9.65;83.07;99626.38;5013359;28;1914;-77
2022/11/02 10:36:53;;;;;;;;;;;;;;;9.64;83.07;99622.84;5032965;28;1378;-78
2022/11/02 10:39:19;;;;;;;;;;;;;;;9.64;83.14;99625.53;5019825;28;1189;-77
2022/11/02 10:41:47;;;;;;;;;;;;;;;9.63;83.27;99623.91;5013826;28;976;-77
2022/11/02 10:44:14;;;;;;;;;;;;;;;9.63;82.94;99618.50;5024461;28;1899;-77
2022/11/02 10:46:40;;;;;;;;;;;;;;;9.64;83.02;99616.63;5014231;28;1198;-77
2022/11/02 10:49:06;;;;;;;;;;;;;;;9.65;83.18;99626.38;5017385;28;1055;-77
2022/11/02 10:51:32;;;;;;;;;;;;;;;9.64;83.04;99624.72;5029740;28;1851;-77
2022/11/02 10:53:59;;;;;;;;;;;;;;;9.64;82.98;99624.72;5015139;28;1919;-77
2022/11/02 10:56:25;;;;;;;;;;;;;;;9.64;83.15;99622.84;5022455;28;1820;-77
2022/11/02 10:58:51;;;;;;;;;;;;;;;9.63;82.88;99618.50;5014080;28;1379;-77
2022/11/02 11:01:17;;;;;;;;;;;;;;;9.63;82.85;99618.50;5016719;28;1242;-77
2022/11/02 11:03:44;;;;;;;;;;;;;;;9.64;83.24;99622.03;5031046;28;1340;-77
2022/11/02 11:06:10;;;;;;;;;;;;;;;9.63;83.05;99621.22;5027221;28;1513;-77
2022/11/02 11:08:37;;;;;;;;;;;;;;;9.62;83.02;99624.97;5016220;28;1487;-77
2022/11/02 11:11:03;;;;;;;;;;;;;;;9.62;83.11;99622.28;5032987;28;1214;-77
2022/11/02 11:13:29;;;;;;;;;;;;;;;9.63;82.89;99621.22;5030963;28;1678;-77
2022/11/02 11:15:55;;;;;;;;;;;;;;;9.63;82.92;99617.72;5019575;28;3444;-78
2022/11/02 11:18:22;;;;;;;;;;;;;;;9.62;83.07;99619.59;5028514;28;3685;-78
2022/11/02 11:20:48;;;;;;;;;;;;;;;9.62;83.02;99619.59;5026493;28;3233;-78
2022/11/02 11:23:15;;;;;;;;;;;;;;;9.63;83.13;99615.81;5029839;28;1543;-77
2022/11/02 11:25:41;;;;;;;;;;;;;;;9.63;83.15;99621.22;5030282;28;1420;-77
2022/11/02 11:28:07;;;;;;;;;;;;;;;9.63;83.04;99617.72;5027914;28;1792;-77
2022/11/02 11:30:34;;;;;;;;;;;;;;;9.63;83.25;99604.25;5026302;28;1757;-76
2022/11/02 11:33:00;;;;;;;;;;;;;;;9.63;82.98;99612.31;5027427;28;3283;-76
2022/11/02 11:35:26;;;;;;;;;;;;;;;9.63;83.19;99612.31;5027345;28;1911;-77
2022/11/02 11:37:53;;;;;;;;;;;;;;;9.63;83.17;99606.94;5026288;28;1548;-77
2022/11/02 11:40:19;;;;;;;;;;;;;;;9.63;82.96;99617.72;5027869;28;1722;-77
2022/11/02 11:42:47;;;;;;;;;;;;;;;9.63;82.96;99612.31;5028321;28;2304;-78
2022/11/02 11:45:14;;;;;;;;;;;;;;;9.63;83.09;99618.50;5025641;28;1813;-77
2022/11/02 11:47:40;;;;;;;;;;;;;;;9.63;83.06;99629.28;5028804;28;1749;-78
2022/11/02 11:50:06;;;;;;;;;;;;;;;9.62;83.10;99619.59;5018921;28;5345;-77
2022/11/02 11:52:33;;;;;;;;;;;;;;;9.63;83.13;99623.09;5027502;28;5733;-78
2022/11/02 11:54:59;;;;;;;;;;;;;;;9.62;83.19;99614.22;5027974;28;1918;-78
2022/11/02 11:57:26;;;;;;;;;;;;;;;9.62;83.02;99606.13;5027820;28;4994;-77
2022/11/02 11:59:54;;;;;;;;;;;;;;;9.62;83.20;99603.44;5025666;28;1800;-77
2022/11/02 12:02:20;;;;;;;;;;;;;;;9.62;83.07;99606.13;5024830;28;1817;-77
2022/11/02 12:04:47;;;;;;;;;;;;;;;9.62;83.24;99621.44;5021926;28;1754;-78
2022/11/02 12:07:13;;;;;;;;;;;;;;;9.63;83.05;99620.41;5027702;28;1907;-78
2022/11/02 12:09:39;;;;;;;;;;;;;;;9.62;83.28;99608.81;5027195;28;5275;-78
2022/11/02 12:12:06;;;;;;;;;;;;;;;9.62;83.39;99614.22;5026012;28;1773;-78
2022/11/02 12:14:32;;;;;;;;;;;;;;;9.61;83.20;99600.97;5027020;28;1985;-78
2022/11/02 12:16:58;;;;;;;;;;;;;;;9.61;83.35;99607.16;5024532;28;1876;-77
2022/11/02 12:19:25;;;;;;;;;;;;;;;9.61;83.36;99604.47;5026443;28;1797;-79
2022/11/02 12:21:51;;;;;;;;;;;;;;;9.62;83.17;99602.59;5026286;28;2922;-77
2022/11/02 12:24:18;;;;;;;;;;;;;;;9.61;83.15;99600.97;5028504;28;2329;-77
2022/11/02 12:26:44;;;;;;;;;;;;;;;9.61;83.08;99601.78;5023133;28;1862;-77
2022/11/02 12:29:10;;;;;;;;;;;;;;;9.61;83.12;99601.78;5025538;28;1821;-77
2022/11/02 12:31:37;;;;;;;;;;;;;;;9.61;83.20;99598.28;5025801;28;1566;-77
2022/11/02 12:34:03;;;;;;;;;;;;;;;9.61;83.04;99606.38;5026494;28;1805;-76
2022/11/02 12:36:29;;;;;;;;;;;;;;;9.60;83.08;99605.53;5027059;28;1969;-76
2022/11/02 12:38:55;;;;;;;;;;;;;;;9.60;83.00;99608.25;5026645;28;1844;-76
2022/11/02 12:41:22;;;;;;;;;;;;;;;9.60;83.15;99599.34;5029286;28;1745;-76
2022/11/02 12:43:48;;;;;;;;;;;;;;;9.61;82.92;99609.88;5027423;28;1662;-76
2022/11/02 12:46:14;;;;;;;;;;;;;;;9.60;83.16;99608.25;5024957;28;1821;-76
2022/11/02 12:48:41;;;;;;;;;;;;;;;9.60;83.14;99616.31;5025583;28;1910;-76
2022/11/02 12:51:07;;;;;;;;;;;;;;;9.61;83.14;99617.13;5026851;28;1753;-76
2022/11/02 12:53:33;;;;;;;;;;;;;;;9.60;83.07;99610.94;5031780;28;1439;-77
2022/11/02 12:55:59;;;;;;;;;;;;;;;9.60;83.09;99624.38;5034469;28;1910;-76
2022/11/02 12:58:26;;;;;;;;;;;;;;;9.60;83.14;99616.31;5026805;28;1753;-76
2022/11/02 13:00:52;;;;;;;;;;;;;;;9.61;83.11;99623.31;5027931;28;1623;-76
2022/11/02 13:03:18;;;;;;;;;;;;;;;9.60;83.05;99624.38;5024780;28;1695;-76
2022/11/02 13:05:45;;;;;;;;;;;;;;;9.60;82.90;99624.38;5025857;28;1666;-76
2022/11/02 13:08:11;;;;;;;;;;;;;;;9.61;83.13;99625.19;5027482;28;1872;-76
2022/11/02 13:10:37;;;;;;;;;;;;;;;9.61;82.91;99627.88;5023754;28;1552;-76
2022/11/02 13:13:03;;;;;;;;;;;;;;;9.61;83.04;99627.88;5027280;28;1863;-77
2022/11/02 13:15:30;;;;;;;;;;;;;;;9.60;83.18;99626.25;5029250;28;3341;-77